Time;durP1;ratioP1;P1;durP2;ratioP2;P2;SDS_P1;SDS_P2;PMS_P1;PMS_P2;Temp;Humidity;BMP_temperature;BMP_pressure;BME280_temperature;BME280_humidity;BME280_pressure;Samples;Min_cycle;Max_cycle;Signal;HPM_P1;HPM_P2
2021/11/18 00:01:31;;;;;;;39.27;23.50;;;7.10;99.90;;;;;;5043465;28;20199;-68
2021/11/18 00:03:58;;;;;;;38.20;23.00;;;7.10;99.90;;;;;;5038502;28;20198;-66
2021/11/18 00:06:25;;;;;;;38.37;22.87;;;7.10;99.90;;;;;;5044540;28;20211;-65
2021/11/18 00:08:52;;;;;;;38.30;22.03;;;7.10;99.90;;;;;;5035233;28;20211;-64
2021/11/18 00:11:22;;;;;;;36.13;21.47;;;7.10;99.90;;;;;;5040389;28;20201;-66
2021/11/18 00:13:51;;;;;;;37.57;22.43;;;7.10;99.90;;;;;;5036361;28;20210;-67
2021/11/18 00:16:18;;;;;;;32.30;20.13;;;7.10;99.90;;;;;;5031159;28;20325;-65
2021/11/18 00:18:45;;;;;;;32.20;20.50;;;7.10;99.90;;;;;;5035170;28;20214;-66
2021/11/18 00:21:15;;;;;;;31.17;19.97;;;7.10;99.90;;;;;;5048241;28;20232;-67
2021/11/18 00:23:44;;;;;;;27.37;17.57;;;7.20;99.90;;;;;;5045511;28;20206;-66
2021/11/18 00:26:12;;;;;;;28.93;17.97;;;7.20;99.90;;;;;;5043652;28;20210;-65
2021/11/18 00:28:40;;;;;;;29.67;19.00;;;7.10;99.90;;;;;;5049969;28;20588;-66
2021/11/18 00:31:09;;;;;;;26.47;17.27;;;7.10;99.90;;;;;;5044074;28;20210;-67
2021/11/18 00:33:36;;;;;;;26.03;17.47;;;7.10;99.90;;;;;;5030019;28;20565;-66
2021/11/18 00:36:06;;;;;;;24.87;16.90;;;7.10;99.90;;;;;;5030984;28;20303;-65
2021/11/18 00:38:33;;;;;;;27.23;16.87;;;7.10;99.90;;;;;;5048327;28;20267;-66
2021/11/18 00:41:00;;;;;;;25.90;16.83;;;7.10;99.90;;;;;;5042139;28;20300;-66
2021/11/18 00:43:27;;;;;;;26.73;17.07;;;7.10;99.90;;;;;;5045990;28;20567;-66
2021/11/18 00:45:55;;;;;;;25.20;16.27;;;7.10;99.90;;;;;;5048329;28;20652;-66
2021/11/18 00:48:23;;;;;;;29.20;17.57;;;7.10;99.90;;;;;;5045867;28;20303;-66
2021/11/18 00:50:52;;;;;;;25.83;16.63;;;7.10;99.90;;;;;;5038287;28;20210;-66
2021/11/18 00:53:20;;;;;;;27.97;16.83;;;7.10;99.90;;;;;;5031950;28;20218;-66
2021/11/18 00:55:47;;;;;;;25.47;17.50;;;7.10;99.90;;;;;;5035979;28;20586;-66
2021/11/18 00:58:14;;;;;;;26.83;16.57;;;7.10;99.90;;;;;;5038159;28;20213;-66
2021/11/18 01:00:44;;;;;;;24.67;16.27;;;7.10;99.90;;;;;;5039558;28;20210;-67
2021/11/18 01:03:16;;;;;;;25.70;16.73;;;7.10;99.90;;;;;;5030309;28;20236;-66
2021/11/18 01:05:47;;;;;;;25.73;15.40;;;7.10;99.90;;;;;;5035735;28;20213;-66
2021/11/18 01:08:14;;;;;;;26.10;16.20;;;7.10;99.90;;;;;;5030565;28;20205;-64
2021/11/18 01:10:45;;;;;;;24.53;16.03;;;7.10;99.90;;;;;;5031471;28;20222;-66
2021/11/18 01:13:12;;;;;;;24.73;16.07;;;7.20;99.90;;;;;;5030313;28;20664;-65
2021/11/18 01:15:42;;;;;;;22.93;15.57;;;7.10;99.90;;;;;;5050270;28;20557;-66
2021/11/18 01:18:10;;;;;;;23.47;16.17;;;7.10;99.90;;;;;;5040851;28;20216;-67
2021/11/18 01:20:40;;;;;;;24.67;16.47;;;7.10;99.90;;;;;;5054878;28;20685;-65
2021/11/18 01:23:10;;;;;;;21.03;15.27;;;7.10;99.90;;;;;;5046406;28;20253;-66
2021/11/18 01:25:38;;;;;;;21.83;15.27;;;7.10;99.90;;;;;;5037552;28;20674;-65
2021/11/18 01:28:06;;;;;;;26.20;15.77;;;7.10;99.90;;;;;;5036810;28;20210;-65
2021/11/18 01:30:34;;;;;;;23.40;15.73;;;7.00;99.90;;;;;;5053061;28;20210;-66
2021/11/18 01:33:03;;;;;;;23.60;15.50;;;7.00;99.90;;;;;;5048689;28;20206;-66
2021/11/18 01:35:30;;;;;;;23.60;14.77;;;7.00;99.90;;;;;;5041171;28;20268;-66
2021/11/18 01:37:59;;;;;;;23.83;15.17;;;7.00;99.90;;;;;;5049333;28;20206;-67
2021/11/18 01:40:28;;;;;;;23.60;14.53;;;7.00;99.90;;;;;;5052134;28;20580;-67
2021/11/18 01:42:56;;;;;;;22.33;14.50;;;7.00;99.90;;;;;;5040994;28;20206;-68
2021/11/18 01:45:24;;;;;;;19.67;14.57;;;7.00;99.90;;;;;;5040495;28;20198;-66
2021/11/18 01:47:51;;;;;;;24.03;14.67;;;7.00;99.90;;;;;;5038953;28;20301;-66
2021/11/18 01:50:21;;;;;;;20.80;14.27;;;6.90;99.90;;;;;;5041331;28;20203;-66
2021/11/18 01:52:49;;;;;;;24.83;15.60;;;6.90;99.90;;;;;;5049754;28;20206;-66
2021/11/18 01:55:20;;;;;;;20.73;14.50;;;6.90;99.90;;;;;;5036706;28;20218;-67
2021/11/18 01:57:47;;;;;;;23.23;13.83;;;6.90;99.90;;;;;;5040242;28;20257;-67
2021/11/18 02:00:18;;;;;;;22.50;14.60;;;6.90;99.90;;;;;;5042950;28;20218;-66
2021/11/18 02:02:46;;;;;;;18.83;13.17;;;6.90;99.90;;;;;;5048036;28;20573;-66
2021/11/18 02:05:17;;;;;;;19.60;13.57;;;6.80;99.90;;;;;;5038459;28;20623;-66
2021/11/18 02:07:46;;;;;;;20.60;13.87;;;6.80;99.90;;;;;;5039549;28;20218;-66
2021/11/18 02:10:17;;;;;;;23.23;14.53;;;6.80;99.90;;;;;;5036238;28;20207;-66
2021/11/18 02:12:45;;;;;;;22.17;13.93;;;6.80;99.90;;;;;;5042747;28;20774;-66
2021/11/18 02:15:23;;;;;;;21.40;13.30;;;6.80;99.90;;;;;;5036176;28;20233;-65
2021/11/18 02:17:50;;;;;;;20.67;14.50;;;6.80;99.90;;;;;;5043546;28;20662;-67
2021/11/18 02:20:25;;;;;;;20.23;13.40;;;6.80;99.90;;;;;;5053961;28;20206;-67
2021/11/18 02:22:52;;;;;;;21.20;13.80;;;6.80;99.90;;;;;;5037492;28;20301;-66
2021/11/18 02:25:26;;;;;;;20.00;14.13;;;6.80;99.90;;;;;;5053429;28;20208;-67
2021/11/18 02:27:53;;;;;;;23.77;14.87;;;6.80;99.90;;;;;;5040864;28;20396;-67
2021/11/18 02:30:21;;;;;;;21.57;14.13;;;6.80;99.90;;;;;;5043333;28;20206;-67
2021/11/18 02:32:48;;;;;;;23.57;14.57;;;6.80;99.90;;;;;;5034336;28;20211;-67
2021/11/18 02:35:21;;;;;;;24.43;14.40;;;6.80;99.90;;;;;;5040151;28;20322;-67
2021/11/18 02:37:48;;;;;;;19.83;13.63;;;6.80;99.90;;;;;;5035004;28;20724;-66
2021/11/18 02:40:15;;;;;;;21.67;13.73;;;6.70;99.90;;;;;;5033082;28;20573;-66
2021/11/18 02:42:43;;;;;;;23.97;14.80;;;6.70;99.90;;;;;;5046227;28;20575;-66
2021/11/18 02:45:13;;;;;;;21.60;13.47;;;6.70;99.90;;;;;;5041199;28;20299;-66
2021/11/18 02:47:41;;;;;;;19.77;13.03;;;6.70;99.90;;;;;;5039158;28;20218;-68
2021/11/18 02:50:10;;;;;;;19.43;12.10;;;6.70;99.90;;;;;;5047869;28;20206;-66
2021/11/18 02:52:39;;;;;;;22.40;13.77;;;6.70;99.90;;;;;;5045407;28;20210;-66
2021/11/18 02:55:08;;;;;;;20.73;13.40;;;6.70;99.90;;;;;;5036792;28;20690;-67
2021/11/18 02:57:35;;;;;;;21.60;14.37;;;6.70;99.90;;;;;;5036230;28;20223;-67
2021/11/18 03:00:04;;;;;;;21.67;13.50;;;6.70;99.90;;;;;;5037374;28;20578;-66
2021/11/18 03:02:31;;;;;;;19.67;13.93;;;6.60;99.90;;;;;;5041811;28;20655;-66
2021/11/18 03:04:57;;;;;;;21.10;13.83;;;6.60;99.90;;;;;;5036206;28;20202;-66
2021/11/18 03:07:24;;;;;;;20.53;13.83;;;6.60;99.90;;;;;;5037902;28;20213;-68
2021/11/18 03:09:52;;;;;;;18.57;12.50;;;6.60;99.90;;;;;;5039068;28;20582;-67
2021/11/18 03:12:19;;;;;;;19.10;13.47;;;6.60;99.90;;;;;;5031877;28;20230;-67
2021/11/18 03:14:46;;;;;;;18.83;12.53;;;6.60;99.90;;;;;;5032338;28;20253;-66
2021/11/18 03:17:13;;;;;;;17.97;12.67;;;6.60;99.90;;;;;;5049720;28;20674;-66
2021/11/18 03:19:40;;;;;;;21.70;14.13;;;6.70;99.90;;;;;;5052093;28;20305;-67
2021/11/18 03:22:06;;;;;;;21.17;13.27;;;6.70;99.90;;;;;;5034731;28;20210;-67
2021/11/18 03:24:33;;;;;;;18.47;12.80;;;6.70;99.90;;;;;;5031739;28;20218;-66
2021/11/18 03:27:01;;;;;;;20.83;13.57;;;6.60;99.90;;;;;;5045540;28;20202;-66
2021/11/18 03:29:28;;;;;;;20.20;14.07;;;6.60;99.90;;;;;;5037081;28;20284;-66
2021/11/18 03:31:55;;;;;;;20.00;14.23;;;6.70;99.90;;;;;;5049082;28;20202;-68
2021/11/18 03:34:26;;;;;;;22.20;14.43;;;6.60;99.90;;;;;;5037953;28;20213;-67
2021/11/18 03:36:53;;;;;;;20.20;14.00;;;6.60;99.90;;;;;;5045742;28;20240;-66
2021/11/18 03:39:21;;;;;;;20.50;13.03;;;6.60;99.90;;;;;;5034435;28;20209;-66
2021/11/18 03:41:53;;;;;;;18.97;12.77;;;6.60;99.90;;;;;;5033354;28;20214;-66
2021/11/18 03:44:24;;;;;;;21.13;12.90;;;6.60;99.90;;;;;;5031719;28;20563;-66
2021/11/18 03:46:54;;;;;;;18.57;13.33;;;6.60;99.90;;;;;;5032449;28;20218;-66
2021/11/18 03:49:22;;;;;;;21.50;13.33;;;6.60;99.90;;;;;;5047282;28;20635;-66
2021/11/18 03:51:50;;;;;;;23.03;14.13;;;6.70;99.90;;;;;;5035779;28;20285;-65
2021/11/18 03:54:19;;;;;;;21.67;13.17;;;6.70;99.90;;;;;;5031605;28;20368;-66
2021/11/18 03:56:47;;;;;;;22.20;13.53;;;6.70;99.90;;;;;;5031928;28;20227;-66
2021/11/18 03:59:16;;;;;;;20.17;13.87;;;6.70;99.90;;;;;;5040698;28;20234;-66
2021/11/18 04:01:45;;;;;;;19.97;13.37;;;6.70;99.90;;;;;;5031165;28;20207;-66
2021/11/18 04:04:16;;;;;;;23.03;14.03;;;6.70;99.90;;;;;;5031350;28;20640;-66
2021/11/18 04:06:43;;;;;;;21.67;14.87;;;6.70;99.90;;;;;;5030696;28;20198;-66
2021/11/18 04:09:10;;;;;;;22.47;13.87;;;6.70;99.90;;;;;;5032611;28;20214;-65
2021/11/18 04:11:40;;;;;;;22.50;14.07;;;6.70;99.90;;;;;;5030836;28;20242;-67
2021/11/18 04:14:08;;;;;;;20.73;13.93;;;6.70;99.90;;;;;;5030713;28;20206;-66
2021/11/18 04:16:35;;;;;;;21.83;13.33;;;6.80;99.90;;;;;;5034491;28;20226;-67
2021/11/18 04:19:04;;;;;;;24.40;14.47;;;6.70;99.90;;;;;;5049799;28;20202;-66
2021/11/18 04:21:33;;;;;;;21.70;13.07;;;6.80;99.90;;;;;;5039005;28;20218;-66
2021/11/18 04:24:01;;;;;;;20.20;14.07;;;6.80;99.90;;;;;;5033913;28;20662;-65
2021/11/18 04:26:28;;;;;;;22.40;13.80;;;6.80;99.90;;;;;;5049439;28;20753;-66
2021/11/18 04:28:55;;;;;;;20.70;13.03;;;6.80;99.90;;;;;;5030763;28;20215;-67
2021/11/18 04:31:24;;;;;;;22.07;14.07;;;6.80;99.90;;;;;;5030488;28;20216;-66
2021/11/18 04:33:51;;;;;;;23.30;13.33;;;6.80;99.90;;;;;;5032106;28;20233;-66
2021/11/18 04:36:22;;;;;;;23.93;13.60;;;6.80;99.90;;;;;;5047669;28;20571;-67
2021/11/18 04:38:52;;;;;;;20.23;13.63;;;7.10;99.90;;;;;;5040974;28;20208;-67
2021/11/18 04:41:19;;;;;;;17.37;12.07;;;6.80;99.90;;;;;;5032487;28;20679;-66
2021/11/18 04:43:47;;;;;;;22.90;14.83;;;6.80;99.90;;;;;;5037665;28;20210;-67
2021/11/18 04:46:14;;;;;;;20.60;13.83;;;6.80;99.90;;;;;;5030851;28;20214;-67
2021/11/18 04:48:42;;;;;;;20.73;13.93;;;6.80;99.90;;;;;;5046087;28;20224;-66
2021/11/18 04:51:11;;;;;;;21.03;13.57;;;6.80;99.90;;;;;;5036811;28;20210;-67
2021/11/18 04:53:39;;;;;;;23.97;13.07;;;6.90;99.90;;;;;;5035340;28;20222;-67
2021/11/18 04:56:07;;;;;;;24.20;14.60;;;6.90;99.90;;;;;;5030350;28;20873;-66
2021/11/18 04:58:35;;;;;;;22.67;13.87;;;6.90;99.90;;;;;;5039739;28;20220;-66
2021/11/18 05:01:02;;;;;;;26.07;14.10;;;6.90;99.90;;;;;;5043508;28;20210;-66
2021/11/18 05:03:30;;;;;;;22.60;14.20;;;6.90;99.90;;;;;;5045922;28;20207;-67
2021/11/18 05:05:58;;;;;;;24.63;15.23;;;6.90;99.90;;;;;;5030596;28;20207;-66
2021/11/18 05:08:25;;;;;;;23.27;14.67;;;6.90;99.90;;;;;;5034039;28;20215;-66
2021/11/18 05:10:54;;;;;;;21.97;14.33;;;6.90;99.90;;;;;;5033921;28;20198;-66
2021/11/18 05:13:24;;;;;;;25.40;16.00;;;6.90;99.90;;;;;;5034804;28;20589;-66
2021/11/18 05:15:52;;;;;;;27.67;15.97;;;6.90;99.90;;;;;;5037514;28;20231;-66
2021/11/18 05:18:20;;;;;;;24.17;14.93;;;6.90;99.90;;;;;;5029737;28;20217;-65
2021/11/18 05:20:47;;;;;;;22.80;15.43;;;6.90;99.90;;;;;;5047852;28;20214;-66
2021/11/18 05:23:16;;;;;;;25.93;15.27;;;6.90;99.90;;;;;;5046062;28;20213;-66
2021/11/18 05:25:44;;;;;;;26.33;15.50;;;6.90;99.90;;;;;;5031574;28;20207;-67
2021/11/18 05:28:13;;;;;;;27.47;16.23;;;6.90;99.90;;;;;;5030690;28;20232;-67
2021/11/18 05:30:41;;;;;;;30.30;16.43;;;6.90;99.90;;;;;;5046669;28;20754;-66
2021/11/18 05:33:10;;;;;;;24.27;15.13;;;6.90;99.90;;;;;;5029860;28;20209;-66
2021/11/18 05:35:38;;;;;;;25.23;15.83;;;7.00;99.90;;;;;;5029503;28;20222;-67
2021/11/18 05:38:06;;;;;;;24.37;16.17;;;7.00;99.90;;;;;;5030327;28;20210;-67
2021/11/18 05:40:34;;;;;;;25.73;16.67;;;7.00;99.90;;;;;;5030837;28;20206;-66
2021/11/18 05:43:01;;;;;;;25.43;16.87;;;7.00;99.90;;;;;;5033849;28;20210;-65
2021/11/18 05:45:31;;;;;;;30.03;17.20;;;7.00;99.90;;;;;;5032336;28;20685;-66
2021/11/18 05:47:58;;;;;;;28.07;16.70;;;7.00;99.90;;;;;;5031376;28;20293;-67
2021/11/18 05:50:27;;;;;;;26.00;17.30;;;7.00;99.90;;;;;;5049873;28;20682;-66
2021/11/18 05:52:54;;;;;;;28.70;16.90;;;7.00;99.90;;;;;;5043660;28;20209;-66
2021/11/18 05:55:26;;;;;;;28.93;16.57;;;7.00;99.90;;;;;;5043632;28;20661;-67
2021/11/18 05:57:53;;;;;;;24.67;15.73;;;7.10;99.90;;;;;;5036044;28;20577;-67
2021/11/18 06:00:22;;;;;;;24.50;16.30;;;7.00;99.90;;;;;;5041265;28;20211;-65
2021/11/18 06:02:51;;;;;;;29.67;15.87;;;7.00;99.90;;;;;;5037773;28;20219;-66
2021/11/18 06:05:18;;;;;;;25.10;16.43;;;7.10;99.90;;;;;;5037447;28;20206;-67
2021/11/18 06:07:45;;;;;;;26.90;16.23;;;7.10;99.90;;;;;;5044663;28;20289;-68
2021/11/18 06:10:15;;;;;;;26.93;16.80;;;7.10;99.90;;;;;;5036800;28;20211;-67
2021/11/18 06:12:42;;;;;;;29.23;17.27;;;7.10;99.90;;;;;;5042244;28;20230;-67
2021/11/18 06:15:11;;;;;;;27.87;17.90;;;7.10;99.90;;;;;;5050529;28;20221;-66
2021/11/18 06:17:38;;;;;;;26.40;17.30;;;7.10;99.90;;;;;;5041639;28;20337;-65
2021/11/18 06:20:08;;;;;;;28.00;18.00;;;7.10;99.90;;;;;;5052955;28;21061;-66
2021/11/18 06:22:35;;;;;;;24.53;16.90;;;7.10;99.90;;;;;;5033404;28;20742;-65
2021/11/18 06:25:03;;;;;;;25.77;17.63;;;7.10;99.90;;;;;;5044619;28;20214;-66
2021/11/18 06:27:30;;;;;;;26.73;16.67;;;7.10;99.90;;;;;;5051350;28;20362;-66
2021/11/18 06:29:57;;;;;;;27.13;17.53;;;7.00;99.90;;;;;;5040597;28;20582;-68
2021/11/18 06:32:24;;;;;;;24.73;17.43;;;7.00;99.90;;;;;;5044164;28;20212;-66
2021/11/18 06:34:51;;;;;;;30.57;17.70;;;7.00;99.90;;;;;;5052693;28;20662;-66
2021/11/18 06:37:19;;;;;;;30.40;18.43;;;7.00;99.90;;;;;;5038459;28;20697;-66
2021/11/18 06:39:47;;;;;;;28.50;17.50;;;7.10;99.90;;;;;;5049294;28;20228;-66
2021/11/18 06:42:14;;;;;;;26.60;16.90;;;7.10;99.90;;;;;;5040079;28;20207;-67
2021/11/18 06:44:42;;;;;;;25.57;16.87;;;7.10;99.90;;;;;;5032657;28;20591;-67
2021/11/18 06:47:10;;;;;;;29.40;17.27;;;7.10;99.90;;;;;;5033051;28;20207;-66
2021/11/18 06:49:38;;;;;;;24.50;16.93;;;7.10;99.90;;;;;;5046287;28;20214;-67
2021/11/18 06:52:08;;;;;;;29.03;18.33;;;7.10;99.90;;;;;;5049030;28;20226;-67
2021/11/18 06:54:37;;;;;;;29.20;17.03;;;7.20;99.90;;;;;;5039200;28;20242;-69
2021/11/18 06:57:04;;;;;;;26.20;17.10;;;7.10;99.90;;;;;;5046280;28;20717;-70
2021/11/18 06:59:31;;;;;;;30.47;16.17;;;7.20;99.90;;;;;;5034708;28;20218;-70
2021/11/18 07:01:58;;;;;;;29.30;16.67;;;7.20;99.90;;;;;;5042380;28;20297;-69
2021/11/18 07:04:25;;;;;;;25.27;16.90;;;7.10;99.90;;;;;;5033468;28;20697;-69
2021/11/18 07:06:52;;;;;;;27.80;16.93;;;7.20;99.90;;;;;;5038463;28;20710;-69
2021/11/18 07:09:19;;;;;;;24.90;16.20;;;7.20;99.90;;;;;;5032782;28;20206;-69
2021/11/18 07:11:48;;;;;;;26.53;16.97;;;7.20;99.90;;;;;;5032449;28;20715;-70
2021/11/18 07:14:15;;;;;;;26.07;16.87;;;7.10;99.90;;;;;;5032014;28;20214;-70
2021/11/18 07:16:42;;;;;;;30.00;17.43;;;7.20;99.90;;;;;;5038331;28;20229;-70
2021/11/18 07:19:09;;;;;;;28.97;17.20;;;7.10;99.90;;;;;;5041022;28;20197;-70
2021/11/18 07:21:37;;;;;;;23.50;16.70;;;7.10;99.90;;;;;;5039620;28;20740;-68
2021/11/18 07:24:05;;;;;;;28.20;17.20;;;7.10;99.90;;;;;;5038539;28;20248;-66
2021/11/18 07:26:32;;;;;;;25.67;15.93;;;7.10;99.90;;;;;;5051645;28;20217;-68
2021/11/18 07:29:01;;;;;;;28.37;16.53;;;7.10;99.90;;;;;;5034473;28;20630;-68
2021/11/18 07:31:29;;;;;;;25.60;17.10;;;7.10;99.90;;;;;;5032020;28;20618;-67
2021/11/18 07:33:57;;;;;;;25.57;16.83;;;7.10;99.90;;;;;;5031218;28;20268;-68
2021/11/18 07:36:23;;;;;;;23.13;15.83;;;7.10;99.90;;;;;;5035126;28;20229;-67
2021/11/18 07:38:50;;;;;;;24.60;16.13;;;7.10;99.90;;;;;;5039264;28;20207;-68
2021/11/18 07:41:17;;;;;;;27.20;16.60;;;7.10;99.90;;;;;;5036578;28;20293;-68
2021/11/18 07:43:47;;;;;;;24.33;16.30;;;7.10;99.90;;;;;;5032498;28;20207;-69
2021/11/18 07:46:16;;;;;;;24.40;16.83;;;7.10;99.90;;;;;;5044589;28;20203;-67
2021/11/18 07:48:44;;;;;;;26.47;16.30;;;7.10;99.90;;;;;;5040169;28;20220;-67
2021/11/18 07:51:13;;;;;;;27.67;16.20;;;7.10;99.90;;;;;;5044003;28;20221;-71
2021/11/18 07:53:41;;;;;;;25.17;17.30;;;7.10;99.90;;;;;;5048870;28;20213;-72
2021/11/18 07:56:08;;;;;;;24.70;16.43;;;7.00;99.90;;;;;;5036065;28;20341;-73
2021/11/18 07:58:35;;;;;;;23.83;16.70;;;7.10;99.90;;;;;;5036533;28;20210;-71
2021/11/18 08:01:02;;;;;;;25.17;16.20;;;7.10;99.90;;;;;;5050176;28;20279;-70
2021/11/18 08:03:31;;;;;;;25.83;15.83;;;7.10;99.90;;;;;;5035294;28;20207;-73
2021/11/18 08:05:58;;;;;;;27.03;16.37;;;7.10;99.90;;;;;;5033484;28;20198;-68
2021/11/18 08:08:25;;;;;;;27.17;16.00;;;7.10;99.90;;;;;;5040256;28;20213;-69
2021/11/18 08:10:53;;;;;;;23.97;15.30;;;7.10;99.90;;;;;;5050765;28;20237;-69
2021/11/18 08:13:21;;;;;;;23.97;16.17;;;7.10;99.90;;;;;;5039080;28;20321;-70
2021/11/18 08:15:48;;;;;;;23.30;15.20;;;7.20;99.90;;;;;;5032855;28;20210;-70
2021/11/18 08:18:15;;;;;;;23.93;15.07;;;7.20;99.90;;;;;;5045602;28;20578;-70
2021/11/18 08:20:43;;;;;;;22.27;15.17;;;7.20;99.90;;;;;;5050245;28;20199;-71
2021/11/18 08:23:10;;;;;;;24.97;14.93;;;7.20;99.90;;;;;;5043427;28;20319;-70
2021/11/18 08:25:38;;;;;;;19.87;14.00;;;7.30;99.90;;;;;;5042672;28;20208;-70
2021/11/18 08:28:08;;;;;;;23.63;14.87;;;7.20;99.90;;;;;;5038234;28;20206;-70
2021/11/18 08:30:35;;;;;;;21.90;15.47;;;7.20;99.90;;;;;;5044191;28;20210;-70
2021/11/18 08:33:06;;;;;;;25.20;15.33;;;7.20;99.90;;;;;;5032851;28;20213;-70
2021/11/18 08:35:35;;;;;;;19.63;13.67;;;7.20;99.90;;;;;;5045814;28;20206;-70
2021/11/18 08:38:05;;;;;;;22.30;14.13;;;7.20;99.90;;;;;;5053049;28;20321;-70
2021/11/18 08:40:33;;;;;;;27.50;14.27;;;7.30;99.90;;;;;;5052957;28;20230;-70
2021/11/18 08:43:01;;;;;;;22.87;13.70;;;7.20;99.90;;;;;;5047780;28;20245;-69
2021/11/18 08:45:28;;;;;;;19.60;13.30;;;7.30;99.90;;;;;;5044645;28;20565;-70
2021/11/18 08:47:55;;;;;;;19.50;13.20;;;7.30;99.90;;;;;;5044326;28;20313;-70
2021/11/18 08:50:24;;;;;;;19.90;13.10;;;7.30;99.90;;;;;;5045561;28;20242;-69
2021/11/18 08:52:51;;;;;;;22.60;13.23;;;7.30;99.90;;;;;;5041314;28;20289;-69
2021/11/18 08:55:24;;;;;;;19.07;13.37;;;7.40;99.90;;;;;;5047111;28;20301;-69
2021/11/18 08:57:52;;;;;;;21.10;12.77;;;7.40;99.90;;;;;;5034714;28;20231;-70
2021/11/18 09:00:22;;;;;;;22.93;13.10;;;7.50;99.90;;;;;;5035155;28;20199;-69
2021/11/18 09:02:49;;;;;;;22.03;12.73;;;7.50;99.90;;;;;;5040951;28;20484;-68
2021/11/18 09:05:17;;;;;;;17.93;11.83;;;7.50;99.90;;;;;;5045530;28;20210;-67
2021/11/18 09:07:44;;;;;;;24.73;12.57;;;7.70;99.90;;;;;;5036186;28;20661;-71
2021/11/18 09:10:12;;;;;;;17.80;12.03;;;7.80;99.90;;;;;;5048267;28;20202;-72
2021/11/18 09:12:42;;;;;;;21.20;12.03;;;8.00;99.90;;;;;;5032742;28;20233;-71
2021/11/18 09:15:09;;;;;;;17.33;11.70;;;8.30;99.90;;;;;;5049867;28;20210;-71
2021/11/18 09:17:37;;;;;;;17.70;11.50;;;8.40;99.90;;;;;;5032773;28;20230;-72
2021/11/18 09:20:06;;;;;;;16.47;11.37;;;8.40;99.90;;;;;;5034568;28;20557;-70
2021/11/18 09:22:34;;;;;;;17.73;10.87;;;8.50;99.90;;;;;;5042238;28;20221;-69
2021/11/18 09:25:03;;;;;;;17.10;10.83;;;8.40;99.90;;;;;;5037616;28;20655;-70
2021/11/18 09:27:33;;;;;;;18.00;11.30;;;8.30;99.90;;;;;;5044128;28;20609;-69
2021/11/18 09:30:05;;;;;;;15.77;10.77;;;8.30;99.90;;;;;;5047737;28;20210;-69
2021/11/18 09:32:33;;;;;;;17.23;10.00;;;8.20;99.90;;;;;;5043124;28;20263;-71
2021/11/18 09:35:01;;;;;;;15.77;10.73;;;8.10;99.90;;;;;;5031146;28;20766;-70
2021/11/18 09:37:28;;;;;;;15.87;10.73;;;8.00;99.90;;;;;;5042501;28;20219;-70
2021/11/18 09:39:55;;;;;;;18.60;10.90;;;8.00;99.90;;;;;;5033909;28;20907;-71
2021/11/18 09:42:25;;;;;;;17.70;10.67;;;7.90;99.90;;;;;;5034717;28;20466;-71
2021/11/18 09:45:10;;;;;;;18.60;11.43;;;8.00;99.90;;;;;;5038198;28;20206;-70
2021/11/18 09:48:08;;;;;;;14.23;9.53;;;8.00;99.90;;;;;;5045430;28;20566;-70
2021/11/18 09:50:58;;;;;;;18.67;10.57;;;8.00;99.90;;;;;;5034733;28;20607;-73
2021/11/18 09:53:47;;;;;;;19.00;10.23;;;8.00;99.90;;;;;;5043382;28;20206;-70
2021/11/18 09:56:20;;;;;;;19.07;10.93;;;7.90;99.90;;;;;;5034180;28;20229;-71
2021/11/18 09:58:59;;;;;;;18.63;10.63;;;7.90;99.90;;;;;;5037292;28;20205;-70
2021/11/18 10:01:53;;;;;;;15.90;10.17;;;7.90;99.90;;;;;;5041473;28;20596;-71
2021/11/18 10:04:28;;;;;;;17.57;11.07;;;7.90;99.90;;;;;;5044203;28;20286;-71
2021/11/18 10:06:57;;;;;;;16.43;10.63;;;7.90;99.90;;;;;;5048136;28;20679;-71
2021/11/18 10:09:30;;;;;;;17.03;10.40;;;7.80;99.90;;;;;;5039365;28;20285;-69
2021/11/18 10:12:04;;;;;;;15.37;9.87;;;7.80;99.90;;;;;;5048347;28;20234;-75
2021/11/18 10:14:56;;;;;;;17.03;11.63;;;7.80;99.90;;;;;;5040439;28;20207;-71
2021/11/18 10:17:29;;;;;;;15.83;9.97;;;7.80;99.90;;;;;;5041413;28;20237;-71
2021/11/18 10:20:02;;;;;;;18.00;10.17;;;7.80;99.90;;;;;;5042012;28;20755;-72
2021/11/18 10:22:31;;;;;;;19.20;11.07;;;7.80;99.90;;;;;;5038953;28;20584;-70
2021/11/18 10:24:59;;;;;;;17.10;11.10;;;7.80;99.90;;;;;;5049878;28;20293;-71
2021/11/18 10:27:29;;;;;;;17.43;10.43;;;7.80;99.90;;;;;;5045619;28;20194;-70
2021/11/18 10:30:06;;;;;;;19.90;10.93;;;7.80;99.90;;;;;;5049884;28;20283;-71
2021/11/18 10:32:45;;;;;;;16.13;10.60;;;7.80;99.90;;;;;;5043505;28;20304;-70
2021/11/18 10:35:18;;;;;;;18.67;10.17;;;7.80;99.90;;;;;;5048141;28;20825;-71
2021/11/18 10:37:48;;;;;;;18.67;10.73;;;7.80;99.90;;;;;;5045624;28;20215;-71
2021/11/18 10:40:21;;;;;;;18.07;9.73;;;7.90;99.90;;;;;;5048133;28;20224;-71
2021/11/18 10:42:51;;;;;;;17.53;9.87;;;7.90;99.90;;;;;;5039737;28;20206;-69
2021/11/18 10:45:34;;;;;;;16.53;9.10;;;7.90;99.90;;;;;;5052444;28;20206;-72
2021/11/18 10:48:05;;;;;;;15.70;8.80;;;8.00;99.90;;;;;;5041765;28;20222;-72
2021/11/18 10:50:35;;;;;;;15.80;8.90;;;8.00;99.90;;;;;;5040533;28;20194;-71
2021/11/18 10:53:08;;;;;;;16.80;8.80;;;8.00;99.90;;;;;;5035785;28;20582;-69
2021/11/18 10:55:38;;;;;;;16.93;9.87;;;8.00;99.90;;;;;;5052413;28;20210;-70
2021/11/18 10:58:09;;;;;;;14.93;8.17;;;8.00;99.90;;;;;;5048364;28;20654;-70
2021/11/18 11:00:52;;;;;;;15.83;8.73;;;8.00;99.90;;;;;;5051895;28;20198;-70
2021/11/18 11:03:30;;;;;;;18.47;8.80;;;8.10;99.90;;;;;;5052159;28;20202;-70
2021/11/18 11:06:17;;;;;;;13.50;6.87;;;8.60;99.90;;;;;;5038659;28;20198;-70
2021/11/18 11:08:46;;;;;;;15.77;7.93;;;9.20;99.90;;;;;;5038836;28;20237;-71
2021/11/18 11:11:24;;;;;;;13.27;7.33;;;9.50;99.90;;;;;;5037910;28;20294;-69
2021/11/18 11:14:14;;;;;;;12.23;6.47;;;9.70;99.90;;;;;;5042792;28;20201;-70
2021/11/18 11:17:04;;;;;;;9.93;7.33;;;9.50;99.90;;;;;;5040803;28;20313;-71
2021/11/18 11:19:38;;;;;;;11.97;7.43;;;9.40;99.90;;;;;;5039111;28;20293;-70
2021/11/18 11:22:11;;;;;;;15.23;7.60;;;9.20;99.90;;;;;;5040475;28;20202;-70
2021/11/18 11:25:19;;;;;;;10.13;6.43;;;9.10;99.90;;;;;;5040313;28;20591;-70
2021/11/18 11:28:22;;;;;;;13.20;7.67;;;9.00;99.90;;;;;;5037284;28;20197;-70
2021/11/18 11:30:59;;;;;;;8.87;6.47;;;9.20;99.90;;;;;;5043711;28;20212;-72
2021/11/18 11:33:33;;;;;;;11.70;6.73;;;9.70;99.90;;;;;;5038390;28;20201;-70
2021/11/18 11:36:05;;;;;;;9.60;6.73;;;9.90;99.90;;;;;;5035516;28;20281;-71
2021/11/18 11:38:53;;;;;;;10.40;5.50;;;9.80;99.90;;;;;;5040352;28;20210;-70
2021/11/18 11:41:50;;;;;;;12.13;6.37;;;9.70;99.90;;;;;;5038250;28;20201;-69
2021/11/18 11:44:26;;;;;;;10.77;5.83;;;9.60;99.90;;;;;;5031170;28;20304;-70
2021/11/18 11:46:56;;;;;;;10.50;5.30;;;9.40;99.90;;;;;;5047874;28;20777;-70
2021/11/18 11:49:33;;;;;;;10.27;5.27;;;9.20;99.90;;;;;;5051952;28;20202;-70
2021/11/18 11:52:32;;;;;;;13.17;5.57;;;9.10;99.90;;;;;;5036267;28;20220;-69
2021/11/18 11:55:14;;;;;;;11.80;5.73;;;9.00;99.90;;;;;;5034188;28;20711;-71
2021/11/18 11:57:46;;;;;;;8.20;4.93;;;8.90;99.90;;;;;;5051672;28;20596;-70
2021/11/18 12:00:18;;;;;;;11.43;5.93;;;8.80;99.90;;;;;;5046395;28;20550;-70
2021/11/18 12:03:02;;;;;;;12.33;5.63;;;8.70;99.90;;;;;;5050908;28;20288;-69
2021/11/18 12:05:35;;;;;;;12.17;5.97;;;8.70;99.90;;;;;;5046292;28;20208;-70
2021/11/18 12:08:19;;;;;;;9.50;5.17;;;8.60;99.90;;;;;;5046371;28;20198;-71
2021/11/18 12:10:54;;;;;;;10.20;5.00;;;8.60;99.90;;;;;;5040071;28;20729;-70
2021/11/18 12:13:29;;;;;;;14.23;5.53;;;8.60;99.90;;;;;;5051571;28;20237;-70
2021/11/18 12:16:00;;;;;;;12.03;5.70;;;8.50;99.90;;;;;;5044140;28;20755;-71
2021/11/18 12:18:30;;;;;;;8.13;4.87;;;8.50;99.90;;;;;;5032167;28;20218;-73
2021/11/18 12:20:59;;;;;;;11.43;4.70;;;8.50;99.90;;;;;;5033425;28;20289;-72
2021/11/18 12:24:04;;;;;;;10.40;5.10;;;8.50;99.90;;;;;;5033445;28;20211;-71
2021/11/18 12:26:47;;;;;;;12.20;5.40;;;8.40;99.90;;;;;;5022793;28;20233;-70
2021/11/18 12:29:28;;;;;;;9.93;5.50;;;8.40;99.90;;;;;;5053673;28;20285;-70
2021/11/18 12:32:33;;;;;;;10.83;5.43;;;8.40;99.90;;;;;;5047506;28;20216;-70
2021/11/18 12:35:07;;;;;;;11.70;5.40;;;8.40;99.90;;;;;;5043281;28;20630;-71
2021/11/18 12:37:55;;;;;;;13.10;6.77;;;8.40;99.90;;;;;;5053553;28;20746;-70
2021/11/18 12:40:47;;;;;;;11.73;5.80;;;8.40;99.90;;;;;;5052314;28;20232;-70
2021/11/18 12:43:41;;;;;;;13.07;6.37;;;8.50;99.90;;;;;;5047837;28;20217;-71
2021/11/18 12:46:25;;;;;;;11.87;6.40;;;8.50;99.90;;;;;;5051491;28;20209;-70
2021/11/18 12:49:23;;;;;;;13.67;6.93;;;8.50;99.90;;;;;;5052359;28;20778;-70
2021/11/18 12:52:16;;;;;;;12.80;6.40;;;8.50;99.90;;;;;;5037670;28;20455;-71
2021/11/18 12:55:03;;;;;;;11.73;6.57;;;8.50;99.90;;;;;;5038378;28;20345;-70
2021/11/18 12:57:33;;;;;;;12.17;7.50;;;8.50;99.90;;;;;;5032302;28;20683;-71